sensor_id;sensor_type;location;lat;lon;timestamp;P1;durP1;ratioP1;P2;durP2;ratioP2
6463;SDS011;3265;42.694;23.282;2023-04-21T00:02:06;14.80;;;9.60;;
6463;SDS011;3265;42.694;23.282;2023-04-21T00:04:34;15.40;;;9.17;;
6463;SDS011;3265;42.694;23.282;2023-04-21T00:07:01;11.23;;;8.23;;
6463;SDS011;3265;42.694;23.282;2023-04-21T00:09:28;15.30;;;9.10;;
6463;SDS011;3265;42.694;23.282;2023-04-21T00:12:12;14.50;;;9.40;;
6463;SDS011;3265;42.694;23.282;2023-04-21T00:14:39;11.67;;;9.23;;
6463;SDS011;3265;42.694;23.282;2023-04-21T00:17:05;17.40;;;9.47;;
6463;SDS011;3265;42.694;23.282;2023-04-21T00:19:32;14.40;;;9.30;;
6463;SDS011;3265;42.694;23.282;2023-04-21T00:22:00;20.53;;;10.40;;
6463;SDS011;3265;42.694;23.282;2023-04-21T00:24:28;16.83;;;10.00;;
6463;SDS011;3265;42.694;23.282;2023-04-21T00:26:55;14.73;;;9.30;;
6463;SDS011;3265;42.694;23.282;2023-04-21T00:29:22;18.27;;;10.10;;
6463;SDS011;3265;42.694;23.282;2023-04-21T00:31:48;17.50;;;10.20;;
6463;SDS011;3265;42.694;23.282;2023-04-21T00:34:15;15.97;;;9.97;;
6463;SDS011;3265;42.694;23.282;2023-04-21T00:36:42;18.97;;;10.07;;
6463;SDS011;3265;42.694;23.282;2023-04-21T00:39:10;17.97;;;10.57;;
6463;SDS011;3265;42.694;23.282;2023-04-21T00:41:37;14.37;;;9.93;;
6463;SDS011;3265;42.694;23.282;2023-04-21T00:44:05;14.73;;;9.17;;
6463;SDS011;3265;42.694;23.282;2023-04-21T00:46:33;14.07;;;8.53;;
6463;SDS011;3265;42.694;23.282;2023-04-21T00:49:02;13.90;;;8.27;;
6463;SDS011;3265;42.694;23.282;2023-04-21T00:51:31;15.50;;;8.57;;
6463;SDS011;3265;42.694;23.282;2023-04-21T00:53:59;12.43;;;8.67;;
6463;SDS011;3265;42.694;23.282;2023-04-21T00:56:29;13.60;;;9.17;;
6463;SDS011;3265;42.694;23.282;2023-04-21T00:58:57;12.13;;;8.30;;
6463;SDS011;3265;42.694;23.282;2023-04-21T01:01:26;14.67;;;9.03;;
6463;SDS011;3265;42.694;23.282;2023-04-21T01:03:55;14.70;;;8.77;;
6463;SDS011;3265;42.694;23.282;2023-04-21T01:06:23;14.07;;;8.23;;
6463;SDS011;3265;42.694;23.282;2023-04-21T01:08:51;11.70;;;8.37;;
6463;SDS011;3265;42.694;23.282;2023-04-21T01:11:18;12.60;;;8.47;;
6463;SDS011;3265;42.694;23.282;2023-04-21T01:13:46;11.23;;;8.37;;
6463;SDS011;3265;42.694;23.282;2023-04-21T01:16:14;18.23;;;11.00;;
6463;SDS011;3265;42.694;23.282;2023-04-21T01:18:42;16.43;;;10.90;;
6463;SDS011;3265;42.694;23.282;2023-04-21T01:21:09;13.93;;;10.20;;
6463;SDS011;3265;42.694;23.282;2023-04-21T01:23:39;12.23;;;8.63;;
6463;SDS011;3265;42.694;23.282;2023-04-21T01:26:06;13.10;;;8.43;;
6463;SDS011;3265;42.694;23.282;2023-04-21T01:28:33;16.67;;;9.03;;
6463;SDS011;3265;42.694;23.282;2023-04-21T01:31:00;15.37;;;9.17;;
6463;SDS011;3265;42.694;23.282;2023-04-21T01:33:27;10.57;;;7.97;;
6463;SDS011;3265;42.694;23.282;2023-04-21T01:35:54;12.70;;;8.47;;
6463;SDS011;3265;42.694;23.282;2023-04-21T01:38:21;12.60;;;8.60;;
6463;SDS011;3265;42.694;23.282;2023-04-21T01:40:50;13.27;;;8.40;;
6463;SDS011;3265;42.694;23.282;2023-04-21T01:43:19;13.20;;;8.70;;
6463;SDS011;3265;42.694;23.282;2023-04-21T01:45:49;14.07;;;8.13;;
6463;SDS011;3265;42.694;23.282;2023-04-21T01:48:16;14.80;;;9.23;;
6463;SDS011;3265;42.694;23.282;2023-04-21T01:50:43;12.43;;;8.60;;
6463;SDS011;3265;42.694;23.282;2023-04-21T01:53:10;12.67;;;8.60;;
6463;SDS011;3265;42.694;23.282;2023-04-21T01:55:36;13.07;;;9.03;;
6463;SDS011;3265;42.694;23.282;2023-04-21T01:58:04;15.50;;;9.30;;
6463;SDS011;3265;42.694;23.282;2023-04-21T02:00:31;14.60;;;9.43;;
6463;SDS011;3265;42.694;23.282;2023-04-21T02:02:58;14.23;;;9.07;;
6463;SDS011;3265;42.694;23.282;2023-04-21T02:05:25;13.03;;;9.07;;
6463;SDS011;3265;42.694;23.282;2023-04-21T02:07:52;16.47;;;9.43;;
6463;SDS011;3265;42.694;23.282;2023-04-21T02:10:18;16.50;;;9.50;;
6463;SDS011;3265;42.694;23.282;2023-04-21T02:12:45;17.20;;;9.27;;
6463;SDS011;3265;42.694;23.282;2023-04-21T02:15:13;12.93;;;9.63;;
6463;SDS011;3265;42.694;23.282;2023-04-21T02:17:40;16.33;;;9.73;;
6463;SDS011;3265;42.694;23.282;2023-04-21T02:20:09;13.47;;;8.77;;
6463;SDS011;3265;42.694;23.282;2023-04-21T02:22:37;14.30;;;9.00;;
6463;SDS011;3265;42.694;23.282;2023-04-21T02:25:04;13.90;;;9.30;;
6463;SDS011;3265;42.694;23.282;2023-04-21T02:27:31;16.13;;;8.77;;
6463;SDS011;3265;42.694;23.282;2023-04-21T02:29:58;12.90;;;9.20;;
6463;SDS011;3265;42.694;23.282;2023-04-21T02:32:26;18.80;;;8.93;;
6463;SDS011;3265;42.694;23.282;2023-04-21T02:34:53;16.07;;;9.67;;
6463;SDS011;3265;42.694;23.282;2023-04-21T02:37:20;14.13;;;9.97;;
6463;SDS011;3265;42.694;23.282;2023-04-21T02:39:47;16.33;;;10.23;;
6463;SDS011;3265;42.694;23.282;2023-04-21T02:42:13;14.70;;;9.80;;
6463;SDS011;3265;42.694;23.282;2023-04-21T02:44:40;16.57;;;9.73;;
6463;SDS011;3265;42.694;23.282;2023-04-21T02:47:07;15.60;;;9.27;;
6463;SDS011;3265;42.694;23.282;2023-04-21T02:49:39;13.67;;;9.10;;
6463;SDS011;3265;42.694;23.282;2023-04-21T02:52:06;20.60;;;9.57;;
6463;SDS011;3265;42.694;23.282;2023-04-21T02:54:33;13.07;;;9.60;;
6463;SDS011;3265;42.694;23.282;2023-04-21T02:57:00;13.13;;;9.47;;
6463;SDS011;3265;42.694;23.282;2023-04-21T02:59:27;13.83;;;9.57;;
6463;SDS011;3265;42.694;23.282;2023-04-21T03:01:54;17.47;;;9.90;;
6463;SDS011;3265;42.694;23.282;2023-04-21T03:04:21;13.13;;;9.20;;
6463;SDS011;3265;42.694;23.282;2023-04-21T03:06:49;15.90;;;10.10;;
6463;SDS011;3265;42.694;23.282;2023-04-21T03:09:16;14.03;;;9.30;;
6463;SDS011;3265;42.694;23.282;2023-04-21T03:11:43;15.20;;;10.03;;
6463;SDS011;3265;42.694;23.282;2023-04-21T03:14:10;15.80;;;10.70;;
6463;SDS011;3265;42.694;23.282;2023-04-21T03:16:36;15.93;;;10.63;;
6463;SDS011;3265;42.694;23.282;2023-04-21T03:19:03;15.43;;;10.33;;
6463;SDS011;3265;42.694;23.282;2023-04-21T03:21:30;14.87;;;9.90;;
6463;SDS011;3265;42.694;23.282;2023-04-21T03:23:58;14.83;;;10.07;;
6463;SDS011;3265;42.694;23.282;2023-04-21T03:26:25;19.43;;;10.30;;
6463;SDS011;3265;42.694;23.282;2023-04-21T03:28:52;12.77;;;8.97;;
6463;SDS011;3265;42.694;23.282;2023-04-21T03:31:19;17.17;;;9.93;;
6463;SDS011;3265;42.694;23.282;2023-04-21T03:33:45;13.87;;;9.47;;
6463;SDS011;3265;42.694;23.282;2023-04-21T03:36:12;16.50;;;9.40;;
6463;SDS011;3265;42.694;23.282;2023-04-21T03:38:39;14.20;;;9.60;;
6463;SDS011;3265;42.694;23.282;2023-04-21T03:41:07;13.17;;;9.90;;
6463;SDS011;3265;42.694;23.282;2023-04-21T03:43:34;15.50;;;10.50;;
6463;SDS011;3265;42.694;23.282;2023-04-21T03:46:01;13.77;;;10.20;;
6463;SDS011;3265;42.694;23.282;2023-04-21T03:48:28;12.93;;;9.77;;
6463;SDS011;3265;42.694;23.282;2023-04-21T03:50:56;13.10;;;10.20;;
6463;SDS011;3265;42.694;23.282;2023-04-21T03:53:23;15.83;;;10.33;;
6463;SDS011;3265;42.694;23.282;2023-04-21T03:55:49;13.97;;;10.20;;
6463;SDS011;3265;42.694;23.282;2023-04-21T03:58:18;14.00;;;10.33;;
6463;SDS011;3265;42.694;23.282;2023-04-21T04:00:44;17.60;;;10.40;;
6463;SDS011;3265;42.694;23.282;2023-04-21T04:03:11;17.23;;;10.03;;
6463;SDS011;3265;42.694;23.282;2023-04-21T04:05:38;17.60;;;10.60;;
6463;SDS011;3265;42.694;23.282;2023-04-21T04:08:05;14.87;;;10.63;;
6463;SDS011;3265;42.694;23.282;2023-04-21T04:10:31;16.37;;;11.00;;
6463;SDS011;3265;42.694;23.282;2023-04-21T04:12:58;16.97;;;11.10;;
6463;SDS011;3265;42.694;23.282;2023-04-21T04:15:26;15.80;;;11.40;;
6463;SDS011;3265;42.694;23.282;2023-04-21T04:17:53;18.07;;;11.63;;
6463;SDS011;3265;42.694;23.282;2023-04-21T04:20:20;16.20;;;11.20;;
6463;SDS011;3265;42.694;23.282;2023-04-21T04:22:47;15.33;;;11.70;;
6463;SDS011;3265;42.694;23.282;2023-04-21T04:25:13;21.17;;;11.63;;
6463;SDS011;3265;42.694;23.282;2023-04-21T04:27:41;18.70;;;11.50;;
6463;SDS011;3265;42.694;23.282;2023-04-21T04:30:08;21.20;;;11.90;;
6463;SDS011;3265;42.694;23.282;2023-04-21T04:32:37;20.30;;;11.10;;
6463;SDS011;3265;42.694;23.282;2023-04-21T04:35:05;17.97;;;11.90;;
6463;SDS011;3265;42.694;23.282;2023-04-21T04:37:34;19.60;;;11.67;;
6463;SDS011;3265;42.694;23.282;2023-04-21T04:40:01;19.43;;;11.90;;
6463;SDS011;3265;42.694;23.282;2023-04-21T04:42:30;17.97;;;11.93;;
6463;SDS011;3265;42.694;23.282;2023-04-21T04:44:58;16.40;;;11.60;;
6463;SDS011;3265;42.694;23.282;2023-04-21T04:47:26;17.07;;;11.67;;
6463;SDS011;3265;42.694;23.282;2023-04-21T04:49:54;18.80;;;11.80;;
6463;SDS011;3265;42.694;23.282;2023-04-21T04:52:21;20.70;;;12.10;;
6463;SDS011;3265;42.694;23.282;2023-04-21T04:54:47;19.17;;;12.20;;
6463;SDS011;3265;42.694;23.282;2023-04-21T04:57:14;20.23;;;12.00;;
6463;SDS011;3265;42.694;23.282;2023-04-21T04:59:41;23.83;;;13.27;;
6463;SDS011;3265;42.694;23.282;2023-04-21T05:02:08;22.30;;;15.00;;
6463;SDS011;3265;42.694;23.282;2023-04-21T05:04:35;24.50;;;17.80;;
6463;SDS011;3265;42.694;23.282;2023-04-21T05:07:03;33.40;;;22.33;;
6463;SDS011;3265;42.694;23.282;2023-04-21T05:09:31;19.67;;;14.07;;
6463;SDS011;3265;42.694;23.282;2023-04-21T05:11:58;17.60;;;12.60;;
6463;SDS011;3265;42.694;23.282;2023-04-21T05:14:25;25.13;;;11.43;;
6463;SDS011;3265;42.694;23.282;2023-04-21T05:16:52;18.83;;;11.03;;
6463;SDS011;3265;42.694;23.282;2023-04-21T05:19:19;24.40;;;11.17;;
6463;SDS011;3265;42.694;23.282;2023-04-21T05:21:46;18.70;;;11.17;;
6463;SDS011;3265;42.694;23.282;2023-04-21T05:24:14;21.37;;;11.57;;
6463;SDS011;3265;42.694;23.282;2023-04-21T05:26:41;17.57;;;11.97;;
6463;SDS011;3265;42.694;23.282;2023-04-21T05:29:07;15.97;;;10.87;;
6463;SDS011;3265;42.694;23.282;2023-04-21T05:31:35;16.47;;;10.27;;
6463;SDS011;3265;42.694;23.282;2023-04-21T05:34:03;18.00;;;10.67;;
6463;SDS011;3265;42.694;23.282;2023-04-21T05:36:29;18.13;;;11.37;;
6463;SDS011;3265;42.694;23.282;2023-04-21T05:38:56;20.80;;;11.33;;
6463;SDS011;3265;42.694;23.282;2023-04-21T05:41:24;15.87;;;10.37;;
6463;SDS011;3265;42.694;23.282;2023-04-21T05:43:51;14.93;;;9.13;;
6463;SDS011;3265;42.694;23.282;2023-04-21T05:46:18;15.80;;;10.83;;
6463;SDS011;3265;42.694;23.282;2023-04-21T05:48:45;14.90;;;9.93;;
6463;SDS011;3265;42.694;23.282;2023-04-21T05:51:12;16.93;;;10.77;;
6463;SDS011;3265;42.694;23.282;2023-04-21T05:53:40;18.67;;;10.53;;
6463;SDS011;3265;42.694;23.282;2023-04-21T05:56:08;13.83;;;10.10;;
6463;SDS011;3265;42.694;23.282;2023-04-21T05:58:37;17.20;;;10.50;;
6463;SDS011;3265;42.694;23.282;2023-04-21T06:01:04;13.00;;;9.27;;
6463;SDS011;3265;42.694;23.282;2023-04-21T06:03:31;12.87;;;9.27;;
6463;SDS011;3265;42.694;23.282;2023-04-21T06:05:59;16.30;;;9.40;;
6463;SDS011;3265;42.694;23.282;2023-04-21T06:08:26;11.13;;;8.67;;
6463;SDS011;3265;42.694;23.282;2023-04-21T06:10:53;14.23;;;9.70;;
6463;SDS011;3265;42.694;23.282;2023-04-21T06:13:21;13.70;;;9.90;;
6463;SDS011;3265;42.694;23.282;2023-04-21T06:15:50;15.27;;;10.50;;
6463;SDS011;3265;42.694;23.282;2023-04-21T06:18:17;16.33;;;9.87;;
6463;SDS011;3265;42.694;23.282;2023-04-21T06:20:48;11.90;;;9.23;;
6463;SDS011;3265;42.694;23.282;2023-04-21T06:23:15;15.90;;;10.53;;
6463;SDS011;3265;42.694;23.282;2023-04-21T06:25:42;14.23;;;9.77;;
6463;SDS011;3265;42.694;23.282;2023-04-21T06:28:09;19.33;;;10.37;;
6463;SDS011;3265;42.694;23.282;2023-04-21T06:30:35;18.17;;;9.70;;
6463;SDS011;3265;42.694;23.282;2023-04-21T06:33:04;12.67;;;8.80;;
6463;SDS011;3265;42.694;23.282;2023-04-21T06:35:31;13.83;;;9.17;;
6463;SDS011;3265;42.694;23.282;2023-04-21T06:37:58;16.10;;;9.43;;
6463;SDS011;3265;42.694;23.282;2023-04-21T06:40:24;17.17;;;10.57;;
6463;SDS011;3265;42.694;23.282;2023-04-21T06:42:51;16.10;;;10.00;;
6463;SDS011;3265;42.694;23.282;2023-04-21T06:45:18;13.57;;;9.40;;
6463;SDS011;3265;42.694;23.282;2023-04-21T06:47:45;18.27;;;10.60;;
6463;SDS011;3265;42.694;23.282;2023-04-21T06:50:13;12.90;;;9.53;;
6463;SDS011;3265;42.694;23.282;2023-04-21T06:52:40;14.20;;;9.00;;
6463;SDS011;3265;42.694;23.282;2023-04-21T06:55:07;15.20;;;9.00;;
6463;SDS011;3265;42.694;23.282;2023-04-21T06:57:34;13.47;;;9.63;;
6463;SDS011;3265;42.694;23.282;2023-04-21T07:00:01;15.93;;;9.40;;
6463;SDS011;3265;42.694;23.282;2023-04-21T07:02:29;14.47;;;9.53;;
6463;SDS011;3265;42.694;23.282;2023-04-21T07:04:56;14.53;;;10.07;;
6463;SDS011;3265;42.694;23.282;2023-04-21T07:07:25;15.07;;;9.07;;
6463;SDS011;3265;42.694;23.282;2023-04-21T07:09:52;15.30;;;8.83;;
6463;SDS011;3265;42.694;23.282;2023-04-21T07:12:18;14.17;;;9.47;;
6463;SDS011;3265;42.694;23.282;2023-04-21T07:14:45;12.97;;;8.80;;
6463;SDS011;3265;42.694;23.282;2023-04-21T07:17:12;15.00;;;9.20;;
6463;SDS011;3265;42.694;23.282;2023-04-21T07:19:39;11.80;;;8.77;;
6463;SDS011;3265;42.694;23.282;2023-04-21T07:22:06;13.67;;;8.53;;
6463;SDS011;3265;42.694;23.282;2023-04-21T07:24:34;11.53;;;8.60;;
6463;SDS011;3265;42.694;23.282;2023-04-21T07:27:01;15.07;;;8.63;;
6463;SDS011;3265;42.694;23.282;2023-04-21T07:29:28;11.90;;;9.40;;
6463;SDS011;3265;42.694;23.282;2023-04-21T07:31:58;12.90;;;8.67;;
6463;SDS011;3265;42.694;23.282;2023-04-21T07:34:25;11.20;;;8.47;;
6463;SDS011;3265;42.694;23.282;2023-04-21T07:36:55;14.13;;;8.30;;
6463;SDS011;3265;42.694;23.282;2023-04-21T07:39:22;12.63;;;7.30;;
6463;SDS011;3265;42.694;23.282;2023-04-21T07:41:50;11.67;;;7.40;;
6463;SDS011;3265;42.694;23.282;2023-04-21T07:44:18;12.40;;;8.20;;
6463;SDS011;3265;42.694;23.282;2023-04-21T07:46:46;11.30;;;7.43;;
6463;SDS011;3265;42.694;23.282;2023-04-21T07:49:12;12.17;;;7.50;;
6463;SDS011;3265;42.694;23.282;2023-04-21T07:51:39;13.50;;;7.83;;
6463;SDS011;3265;42.694;23.282;2023-04-21T07:54:06;13.57;;;7.63;;
6463;SDS011;3265;42.694;23.282;2023-04-21T07:56:33;10.17;;;7.20;;
6463;SDS011;3265;42.694;23.282;2023-04-21T07:59:01;9.33;;;6.80;;
6463;SDS011;3265;42.694;23.282;2023-04-21T08:01:28;9.00;;;7.23;;
6463;SDS011;3265;42.694;23.282;2023-04-21T08:03:54;16.93;;;8.13;;
6463;SDS011;3265;42.694;23.282;2023-04-21T08:06:21;14.97;;;8.50;;
6463;SDS011;3265;42.694;23.282;2023-04-21T08:08:48;12.77;;;8.03;;
6463;SDS011;3265;42.694;23.282;2023-04-21T08:11:15;10.87;;;7.67;;
6463;SDS011;3265;42.694;23.282;2023-04-21T08:13:42;10.40;;;7.67;;
6463;SDS011;3265;42.694;23.282;2023-04-21T08:16:10;13.53;;;8.00;;
6463;SDS011;3265;42.694;23.282;2023-04-21T08:18:37;13.40;;;8.17;;
6463;SDS011;3265;42.694;23.282;2023-04-21T08:21:04;11.37;;;8.77;;
6463;SDS011;3265;42.694;23.282;2023-04-21T08:23:31;10.13;;;7.10;;
6463;SDS011;3265;42.694;23.282;2023-04-21T08:25:58;9.60;;;6.37;;
6463;SDS011;3265;42.694;23.282;2023-04-21T08:28:25;8.90;;;6.93;;
6463;SDS011;3265;42.694;23.282;2023-04-21T08:30:52;11.77;;;6.60;;
6463;SDS011;3265;42.694;23.282;2023-04-21T08:33:20;12.47;;;6.27;;
6463;SDS011;3265;42.694;23.282;2023-04-21T08:35:46;11.73;;;7.17;;
6463;SDS011;3265;42.694;23.282;2023-04-21T08:38:15;10.80;;;7.20;;
6463;SDS011;3265;42.694;23.282;2023-04-21T08:40:48;13.13;;;7.77;;
6463;SDS011;3265;42.694;23.282;2023-04-21T08:43:15;12.47;;;8.50;;
6463;SDS011;3265;42.694;23.282;2023-04-21T08:45:42;13.60;;;7.13;;
6463;SDS011;3265;42.694;23.282;2023-04-21T08:48:09;13.50;;;7.03;;
6463;SDS011;3265;42.694;23.282;2023-04-21T08:50:47;12.37;;;7.13;;
6463;SDS011;3265;42.694;23.282;2023-04-21T08:53:14;10.53;;;7.10;;
6463;SDS011;3265;42.694;23.282;2023-04-21T08:55:41;12.27;;;7.47;;
6463;SDS011;3265;42.694;23.282;2023-04-21T08:58:08;10.60;;;7.10;;
6463;SDS011;3265;42.694;23.282;2023-04-21T09:00:36;10.87;;;6.50;;
6463;SDS011;3265;42.694;23.282;2023-04-21T09:03:03;11.43;;;6.17;;
6463;SDS011;3265;42.694;23.282;2023-04-21T09:05:33;13.77;;;5.97;;
6463;SDS011;3265;42.694;23.282;2023-04-21T09:08:08;8.50;;;5.83;;
6463;SDS011;3265;42.694;23.282;2023-04-21T09:10:43;12.40;;;6.37;;
6463;SDS011;3265;42.694;23.282;2023-04-21T09:13:10;9.83;;;6.17;;
6463;SDS011;3265;42.694;23.282;2023-04-21T09:15:40;10.60;;;5.90;;
6463;SDS011;3265;42.694;23.282;2023-04-21T09:18:11;7.97;;;5.87;;
6463;SDS011;3265;42.694;23.282;2023-04-21T09:20:39;7.43;;;5.47;;
6463;SDS011;3265;42.694;23.282;2023-04-21T09:23:09;11.97;;;5.97;;
6463;SDS011;3265;42.694;23.282;2023-04-21T09:25:37;11.10;;;5.73;;
6463;SDS011;3265;42.694;23.282;2023-04-21T09:28:06;11.13;;;5.87;;
6463;SDS011;3265;42.694;23.282;2023-04-21T09:30:33;8.43;;;6.53;;
6463;SDS011;3265;42.694;23.282;2023-04-21T09:33:01;9.43;;;5.73;;
6463;SDS011;3265;42.694;23.282;2023-04-21T09:35:28;9.47;;;5.90;;
6463;SDS011;3265;42.694;23.282;2023-04-21T09:37:58;12.97;;;6.90;;
6463;SDS011;3265;42.694;23.282;2023-04-21T09:40:31;8.13;;;5.90;;
6463;SDS011;3265;42.694;23.282;2023-04-21T09:42:58;8.03;;;6.00;;
6463;SDS011;3265;42.694;23.282;2023-04-21T09:45:26;10.73;;;6.10;;
6463;SDS011;3265;42.694;23.282;2023-04-21T09:47:54;12.70;;;6.20;;
6463;SDS011;3265;42.694;23.282;2023-04-21T09:50:23;8.40;;;5.43;;
6463;SDS011;3265;42.694;23.282;2023-04-21T09:52:53;8.73;;;5.47;;
6463;SDS011;3265;42.694;23.282;2023-04-21T09:55:23;9.57;;;5.37;;
6463;SDS011;3265;42.694;23.282;2023-04-21T09:57:55;10.40;;;5.30;;
6463;SDS011;3265;42.694;23.282;2023-04-21T10:00:25;8.97;;;5.33;;
6463;SDS011;3265;42.694;23.282;2023-04-21T10:02:54;7.27;;;5.80;;
6463;SDS011;3265;42.694;23.282;2023-04-21T10:05:22;9.97;;;5.63;;
6463;SDS011;3265;42.694;23.282;2023-04-21T10:07:49;8.13;;;5.27;;
6463;SDS011;3265;42.694;23.282;2023-04-21T10:10:19;11.20;;;5.77;;
6463;SDS011;3265;42.694;23.282;2023-04-21T10:12:50;11.33;;;5.73;;
6463;SDS011;3265;42.694;23.282;2023-04-21T10:15:29;9.97;;;5.83;;
6463;SDS011;3265;42.694;23.282;2023-04-21T10:18:13;9.97;;;6.43;;
6463;SDS011;3265;42.694;23.282;2023-04-21T10:20:51;8.40;;;6.13;;
6463;SDS011;3265;42.694;23.282;2023-04-21T10:23:28;11.83;;;6.87;;
6463;SDS011;3265;42.694;23.282;2023-04-21T10:26:00;10.80;;;6.43;;
6463;SDS011;3265;42.694;23.282;2023-04-21T10:28:38;9.03;;;6.03;;
6463;SDS011;3265;42.694;23.282;2023-04-21T10:31:18;8.60;;;5.83;;
6463;SDS011;3265;42.694;23.282;2023-04-21T10:39:55;15.47;;;6.27;;
6463;SDS011;3265;42.694;23.282;2023-04-21T10:42:26;11.63;;;6.13;;
6463;SDS011;3265;42.694;23.282;2023-04-21T10:45:00;12.97;;;6.53;;
6463;SDS011;3265;42.694;23.282;2023-04-21T10:47:36;9.77;;;5.80;;
6463;SDS011;3265;42.694;23.282;2023-04-21T10:50:15;12.17;;;6.37;;
6463;SDS011;3265;42.694;23.282;2023-04-21T10:52:45;14.13;;;6.20;;
6463;SDS011;3265;42.694;23.282;2023-04-21T10:55:17;8.27;;;5.47;;
6463;SDS011;3265;42.694;23.282;2023-04-21T10:57:46;10.47;;;5.67;;
6463;SDS011;3265;42.694;23.282;2023-04-21T11:00:14;7.73;;;5.40;;
6463;SDS011;3265;42.694;23.282;2023-04-21T11:02:55;8.20;;;5.20;;
6463;SDS011;3265;42.694;23.282;2023-04-21T11:05:33;11.63;;;5.73;;
6463;SDS011;3265;42.694;23.282;2023-04-21T11:08:03;7.72;;;5.13;;
6463;SDS011;3265;42.694;23.282;2023-04-21T11:10:40;10.07;;;5.13;;
6463;SDS011;3265;42.694;23.282;2023-04-21T11:13:11;10.90;;;5.60;;
6463;SDS011;3265;42.694;23.282;2023-04-21T11:15:39;10.27;;;5.63;;
6463;SDS011;3265;42.694;23.282;2023-04-21T11:18:07;7.40;;;5.60;;
6463;SDS011;3265;42.694;23.282;2023-04-21T11:20:34;9.60;;;5.00;;
6463;SDS011;3265;42.694;23.282;2023-04-21T11:23:06;9.10;;;4.70;;
6463;SDS011;3265;42.694;23.282;2023-04-21T11:25:44;8.85;;;4.60;;
6463;SDS011;3265;42.694;23.282;2023-04-21T11:28:11;7.50;;;4.03;;
6463;SDS011;3265;42.694;23.282;2023-04-21T11:30:45;8.98;;;4.28;;
6463;SDS011;3265;42.694;23.282;2023-04-21T11:33:14;10.23;;;5.15;;
6463;SDS011;3265;42.694;23.282;2023-04-21T11:35:41;8.82;;;5.25;;
6463;SDS011;3265;42.694;23.282;2023-04-21T11:38:08;7.07;;;4.70;;
6463;SDS011;3265;42.694;23.282;2023-04-21T11:40:45;7.65;;;4.75;;
6463;SDS011;3265;42.694;23.282;2023-04-21T11:43:12;7.75;;;4.70;;
6463;SDS011;3265;42.694;23.282;2023-04-21T11:45:39;8.30;;;4.28;;
6463;SDS011;3265;42.694;23.282;2023-04-21T11:48:13;7.28;;;3.90;;
6463;SDS011;3265;42.694;23.282;2023-04-21T11:50:45;6.15;;;4.22;;
6463;SDS011;3265;42.694;23.282;2023-04-21T11:53:13;11.27;;;4.30;;
6463;SDS011;3265;42.694;23.282;2023-04-21T11:55:41;7.55;;;4.43;;
6463;SDS011;3265;42.694;23.282;2023-04-21T11:58:08;6.60;;;4.47;;
6463;SDS011;3265;42.694;23.282;2023-04-21T12:00:36;7.05;;;3.47;;
6463;SDS011;3265;42.694;23.282;2023-04-21T12:03:07;5.38;;;3.35;;
6463;SDS011;3265;42.694;23.282;2023-04-21T12:05:35;6.15;;;3.47;;
6463;SDS011;3265;42.694;23.282;2023-04-21T12:08:03;5.20;;;3.15;;
6463;SDS011;3265;42.694;23.282;2023-04-21T12:10:30;4.65;;;3.58;;
6463;SDS011;3265;42.694;23.282;2023-04-21T12:12:58;10.38;;;4.07;;
6463;SDS011;3265;42.694;23.282;2023-04-21T12:15:25;7.93;;;4.45;;
6463;SDS011;3265;42.694;23.282;2023-04-21T12:17:55;7.22;;;5.00;;
6463;SDS011;3265;42.694;23.282;2023-04-21T12:20:22;7.22;;;5.00;;
6463;SDS011;3265;42.694;23.282;2023-04-21T12:22:52;10.18;;;4.95;;
6463;SDS011;3265;42.694;23.282;2023-04-21T12:25:20;13.73;;;5.00;;
6463;SDS011;3265;42.694;23.282;2023-04-21T12:27:48;7.40;;;4.82;;
6463;SDS011;3265;42.694;23.282;2023-04-21T12:30:16;7.57;;;5.03;;
6463;SDS011;3265;42.694;23.282;2023-04-21T12:32:43;8.02;;;5.13;;
6463;SDS011;3265;42.694;23.282;2023-04-21T12:35:11;10.40;;;5.13;;
6463;SDS011;3265;42.694;23.282;2023-04-21T12:37:39;12.50;;;4.30;;
6463;SDS011;3265;42.694;23.282;2023-04-21T12:40:19;12.57;;;5.30;;
6463;SDS011;3265;42.694;23.282;2023-04-21T12:45:34;9.23;;;5.00;;
6463;SDS011;3265;42.694;23.282;2023-04-21T12:48:04;10.23;;;4.90;;
6463;SDS011;3265;42.694;23.282;2023-04-21T12:50:43;8.30;;;4.97;;
6463;SDS011;3265;42.694;23.282;2023-04-21T12:53:11;6.63;;;5.07;;
6463;SDS011;3265;42.694;23.282;2023-04-21T12:55:39;6.32;;;4.90;;
6463;SDS011;3265;42.694;23.282;2023-04-21T12:58:06;9.05;;;4.85;;
6463;SDS011;3265;42.694;23.282;2023-04-21T13:00:33;6.95;;;4.90;;
6463;SDS011;3265;42.694;23.282;2023-04-21T13:03:00;8.93;;;4.97;;
6463;SDS011;3265;42.694;23.282;2023-04-21T13:05:26;8.70;;;4.78;;
6463;SDS011;3265;42.694;23.282;2023-04-21T13:07:55;7.70;;;4.88;;
6463;SDS011;3265;42.694;23.282;2023-04-21T13:10:21;8.25;;;5.15;;
6463;SDS011;3265;42.694;23.282;2023-04-21T13:12:50;8.23;;;4.68;;
6463;SDS011;3265;42.694;23.282;2023-04-21T13:15:17;9.77;;;5.50;;
6463;SDS011;3265;42.694;23.282;2023-04-21T13:17:44;9.45;;;5.10;;
6463;SDS011;3265;42.694;23.282;2023-04-21T13:20:11;8.48;;;4.72;;
6463;SDS011;3265;42.694;23.282;2023-04-21T13:22:37;8.60;;;5.13;;
6463;SDS011;3265;42.694;23.282;2023-04-21T13:25:05;8.52;;;5.22;;
6463;SDS011;3265;42.694;23.282;2023-04-21T13:27:32;8.18;;;5.10;;
6463;SDS011;3265;42.694;23.282;2023-04-21T13:30:00;10.52;;;5.40;;
6463;SDS011;3265;42.694;23.282;2023-04-21T13:32:27;6.97;;;4.90;;
6463;SDS011;3265;42.694;23.282;2023-04-21T13:34:54;9.65;;;5.20;;
6463;SDS011;3265;42.694;23.282;2023-04-21T13:37:22;11.85;;;5.35;;
6463;SDS011;3265;42.694;23.282;2023-04-21T13:39:49;9.15;;;5.47;;
6463;SDS011;3265;42.694;23.282;2023-04-21T13:42:16;10.40;;;6.00;;
6463;SDS011;3265;42.694;23.282;2023-04-21T13:44:42;8.65;;;5.40;;
6463;SDS011;3265;42.694;23.282;2023-04-21T13:47:11;7.15;;;5.35;;
6463;SDS011;3265;42.694;23.282;2023-04-21T13:49:39;13.45;;;5.40;;
6463;SDS011;3265;42.694;23.282;2023-04-21T13:52:06;13.65;;;7.00;;
6463;SDS011;3265;42.694;23.282;2023-04-21T13:54:33;10.13;;;5.30;;
6463;SDS011;3265;42.694;23.282;2023-04-21T13:56:59;17.83;;;5.78;;
6463;SDS011;3265;42.694;23.282;2023-04-21T13:59:27;9.95;;;5.97;;
6463;SDS011;3265;42.694;23.282;2023-04-21T14:01:53;8.32;;;5.68;;
6463;SDS011;3265;42.694;23.282;2023-04-21T14:04:22;10.88;;;5.78;;
6463;SDS011;3265;42.694;23.282;2023-04-21T14:06:48;10.55;;;6.38;;
6463;SDS011;3265;42.694;23.282;2023-04-21T14:09:15;8.43;;;5.18;;
6463;SDS011;3265;42.694;23.282;2023-04-21T14:11:42;13.88;;;5.43;;
6463;SDS011;3265;42.694;23.282;2023-04-21T14:14:09;8.90;;;5.65;;
6463;SDS011;3265;42.694;23.282;2023-04-21T14:16:36;10.68;;;5.40;;
6463;SDS011;3265;42.694;23.282;2023-04-21T14:19:03;8.43;;;5.38;;
6463;SDS011;3265;42.694;23.282;2023-04-21T14:21:31;7.65;;;5.28;;
6463;SDS011;3265;42.694;23.282;2023-04-21T14:23:58;9.20;;;5.65;;
6463;SDS011;3265;42.694;23.282;2023-04-21T14:26:25;7.90;;;5.35;;
6463;SDS011;3265;42.694;23.282;2023-04-21T14:28:52;8.85;;;6.05;;
6463;SDS011;3265;42.694;23.282;2023-04-21T14:31:19;12.63;;;6.35;;
6463;SDS011;3265;42.694;23.282;2023-04-21T14:33:45;9.40;;;5.55;;
6463;SDS011;3265;42.694;23.282;2023-04-21T14:36:12;9.80;;;5.20;;
6463;SDS011;3265;42.694;23.282;2023-04-21T14:38:40;9.00;;;5.80;;
6463;SDS011;3265;42.694;23.282;2023-04-21T14:41:07;9.82;;;6.07;;
6463;SDS011;3265;42.694;23.282;2023-04-21T14:43:34;10.85;;;6.15;;
6463;SDS011;3265;42.694;23.282;2023-04-21T14:46:01;8.55;;;5.63;;
6463;SDS011;3265;42.694;23.282;2023-04-21T14:48:28;7.30;;;5.50;;
6463;SDS011;3265;42.694;23.282;2023-04-21T14:50:55;8.52;;;5.95;;
6463;SDS011;3265;42.694;23.282;2023-04-21T14:53:22;10.82;;;6.10;;
6463;SDS011;3265;42.694;23.282;2023-04-21T14:55:51;10.55;;;6.47;;
6463;SDS011;3265;42.694;23.282;2023-04-21T14:58:17;17.52;;;7.10;;
6463;SDS011;3265;42.694;23.282;2023-04-21T15:00:44;15.65;;;7.00;;
6463;SDS011;3265;42.694;23.282;2023-04-21T15:03:11;15.52;;;6.70;;